Terminal Aerodrome Forecast
Issued by NWS

Home | Current Version | Previous Version | Text Only | Print | Product List | Glossary On
Versions: 1 2 3 4 5 6 7 8 9 10 11 12 13 14 15 16 17 18 19
000
FTUS46 KMTR 250529
TAFSTS
TAF
KSTS 250529Z 2506/2606 21008KT P6SM OVC012
     FM250800 18004KT P6SM OVC020
     FM251730 19010KT P6SM FEW030
     FM260300 19004KT P6SM SCT025=

USA.gov is the U.S. government's official web portal to all federal, state and local government web resources and services.